sensor_id;sensor_type;location;lat;lon;timestamp;temperature;humidity
78619;DHT22;67941;52.506;5.470;2023-12-29T00:00:17;9.80;77.40
78619;DHT22;67941;52.506;5.470;2023-12-29T00:02:46;9.80;77.50
78619;DHT22;67941;52.506;5.470;2023-12-29T00:05:15;9.80;77.60
78619;DHT22;67941;52.506;5.470;2023-12-29T00:07:44;9.80;77.70
78619;DHT22;67941;52.506;5.470;2023-12-29T00:10:14;9.80;77.80
78619;DHT22;67941;52.506;5.470;2023-12-29T00:12:42;9.80;77.80
78619;DHT22;67941;52.506;5.470;2023-12-29T00:15:17;9.80;77.90
78619;DHT22;67941;52.506;5.470;2023-12-29T00:18:05;9.80;77.90
78619;DHT22;67941;52.506;5.470;2023-12-29T00:20:34;9.90;78.00
78619;DHT22;67941;52.506;5.470;2023-12-29T00:23:03;9.80;77.90
78619;DHT22;67941;52.506;5.470;2023-12-29T00:25:32;9.80;77.90
78619;DHT22;67941;52.506;5.470;2023-12-29T00:28:01;9.80;77.90
78619;DHT22;67941;52.506;5.470;2023-12-29T00:30:32;9.80;78.00
78619;DHT22;67941;52.506;5.470;2023-12-29T00:33:01;9.80;78.00
78619;DHT22;67941;52.506;5.470;2023-12-29T00:35:30;9.70;78.10
78619;DHT22;67941;52.506;5.470;2023-12-29T00:37:58;9.80;78.20
78619;DHT22;67941;52.506;5.470;2023-12-29T00:40:27;9.70;78.30
78619;DHT22;67941;52.506;5.470;2023-12-29T00:42:56;9.80;78.40
78619;DHT22;67941;52.506;5.470;2023-12-29T00:45:25;9.80;78.50
78619;DHT22;67941;52.506;5.470;2023-12-29T00:48:00;9.80;78.50
78619;DHT22;67941;52.506;5.470;2023-12-29T00:50:30;9.80;78.40
78619;DHT22;67941;52.506;5.470;2023-12-29T00:52:59;9.80;78.40
78619;DHT22;67941;52.506;5.470;2023-12-29T00:55:27;9.80;78.40
78619;DHT22;67941;52.506;5.470;2023-12-29T00:57:56;9.80;78.60
78619;DHT22;67941;52.506;5.470;2023-12-29T01:00:26;9.80;78.60
78619;DHT22;67941;52.506;5.470;2023-12-29T01:02:55;9.90;78.60
78619;DHT22;67941;52.506;5.470;2023-12-29T01:05:26;9.90;78.60
78619;DHT22;67941;52.506;5.470;2023-12-29T01:07:56;9.90;78.60
78619;DHT22;67941;52.506;5.470;2023-12-29T01:10:25;9.90;78.70
78619;DHT22;67941;52.506;5.470;2023-12-29T01:12:54;9.80;78.80
78619;DHT22;67941;52.506;5.470;2023-12-29T01:15:22;9.80;78.90
78619;DHT22;67941;52.506;5.470;2023-12-29T01:17:52;9.80;78.90
78619;DHT22;67941;52.506;5.470;2023-12-29T01:20:20;9.80;79.00
78619;DHT22;67941;52.506;5.470;2023-12-29T01:22:52;9.80;79.00
78619;DHT22;67941;52.506;5.470;2023-12-29T01:25:21;9.80;79.10
78619;DHT22;67941;52.506;5.470;2023-12-29T01:27:50;9.80;79.10
78619;DHT22;67941;52.506;5.470;2023-12-29T01:30:19;9.80;79.20
78619;DHT22;67941;52.506;5.470;2023-12-29T01:32:47;9.80;79.20
78619;DHT22;67941;52.506;5.470;2023-12-29T01:35:16;9.80;79.20
78619;DHT22;67941;52.506;5.470;2023-12-29T01:37:45;9.80;79.20
78619;DHT22;67941;52.506;5.470;2023-12-29T01:40:17;9.70;79.30
78619;DHT22;67941;52.506;5.470;2023-12-29T01:42:46;9.70;79.20
78619;DHT22;67941;52.506;5.470;2023-12-29T01:45:21;9.70;79.30
78619;DHT22;67941;52.506;5.470;2023-12-29T01:47:52;9.70;79.40
78619;DHT22;67941;52.506;5.470;2023-12-29T01:50:22;9.80;79.50
78619;DHT22;67941;52.506;5.470;2023-12-29T01:52:52;9.80;79.60
78619;DHT22;67941;52.506;5.470;2023-12-29T01:55:26;9.90;79.60
78619;DHT22;67941;52.506;5.470;2023-12-29T01:57:56;9.90;79.50
78619;DHT22;67941;52.506;5.470;2023-12-29T02:00:25;10.00;79.50
78619;DHT22;67941;52.506;5.470;2023-12-29T02:02:54;10.00;79.40
78619;DHT22;67941;52.506;5.470;2023-12-29T02:05:24;10.00;79.50
78619;DHT22;67941;52.506;5.470;2023-12-29T02:07:55;10.10;79.50
78619;DHT22;67941;52.506;5.470;2023-12-29T02:10:26;10.10;79.40
78619;DHT22;67941;52.506;5.470;2023-12-29T02:12:56;10.20;79.40
78619;DHT22;67941;52.506;5.470;2023-12-29T02:15:26;10.20;79.40
78619;DHT22;67941;52.506;5.470;2023-12-29T02:18:00;10.20;79.30
78619;DHT22;67941;52.506;5.470;2023-12-29T02:20:30;10.20;79.30
78619;DHT22;67941;52.506;5.470;2023-12-29T02:22:59;10.20;79.30
78619;DHT22;67941;52.506;5.470;2023-12-29T02:25:31;10.20;79.30
78619;DHT22;67941;52.506;5.470;2023-12-29T02:28:06;10.30;79.30
78619;DHT22;67941;52.506;5.470;2023-12-29T02:30:38;10.30;79.30
78619;DHT22;67941;52.506;5.470;2023-12-29T02:33:12;10.30;79.30
78619;DHT22;67941;52.506;5.470;2023-12-29T02:35:44;10.30;79.30
78619;DHT22;67941;52.506;5.470;2023-12-29T02:38:15;10.30;79.20
78619;DHT22;67941;52.506;5.470;2023-12-29T02:40:47;10.30;79.20
78619;DHT22;67941;52.506;5.470;2023-12-29T02:43:16;10.30;79.20
78619;DHT22;67941;52.506;5.470;2023-12-29T02:45:44;10.30;79.20
78619;DHT22;67941;52.506;5.470;2023-12-29T02:48:13;10.30;79.20
78619;DHT22;67941;52.506;5.470;2023-12-29T02:50:42;10.30;79.10
78619;DHT22;67941;52.506;5.470;2023-12-29T02:53:11;10.20;79.00
78619;DHT22;67941;52.506;5.470;2023-12-29T02:55:40;10.20;79.00
78619;DHT22;67941;52.506;5.470;2023-12-29T02:58:12;10.10;79.00
78619;DHT22;67941;52.506;5.470;2023-12-29T03:00:40;10.10;79.20
78619;DHT22;67941;52.506;5.470;2023-12-29T03:03:09;10.00;79.30
78619;DHT22;67941;52.506;5.470;2023-12-29T03:05:38;10.00;79.50
78619;DHT22;67941;52.506;5.470;2023-12-29T03:08:07;10.00;79.60
78619;DHT22;67941;52.506;5.470;2023-12-29T03:10:36;10.00;79.60
78619;DHT22;67941;52.506;5.470;2023-12-29T03:13:05;10.10;79.60
78619;DHT22;67941;52.506;5.470;2023-12-29T03:15:36;10.10;79.60
78619;DHT22;67941;52.506;5.470;2023-12-29T03:18:05;10.20;79.60
78619;DHT22;67941;52.506;5.470;2023-12-29T03:20:34;10.20;79.50
78619;DHT22;67941;52.506;5.470;2023-12-29T03:23:03;10.20;79.50
78619;DHT22;67941;52.506;5.470;2023-12-29T03:25:32;10.30;79.50
78619;DHT22;67941;52.506;5.470;2023-12-29T03:28:01;10.30;79.40
78619;DHT22;67941;52.506;5.470;2023-12-29T03:30:30;10.30;79.40
78619;DHT22;67941;52.506;5.470;2023-12-29T03:33:01;10.40;79.40
78619;DHT22;67941;52.506;5.470;2023-12-29T03:35:30;10.40;79.40
78619;DHT22;67941;52.506;5.470;2023-12-29T03:37:59;10.40;79.30
78619;DHT22;67941;52.506;5.470;2023-12-29T03:40:28;10.40;79.30
78619;DHT22;67941;52.506;5.470;2023-12-29T03:42:57;10.40;79.20
78619;DHT22;67941;52.506;5.470;2023-12-29T03:45:25;10.40;79.10
78619;DHT22;67941;52.506;5.470;2023-12-29T03:47:54;10.30;79.00
78619;DHT22;67941;52.506;5.470;2023-12-29T03:50:26;10.30;79.00
78619;DHT22;67941;52.506;5.470;2023-12-29T03:52:54;10.30;79.00
78619;DHT22;67941;52.506;5.470;2023-12-29T03:55:23;10.30;79.00
78619;DHT22;67941;52.506;5.470;2023-12-29T03:57:52;10.20;79.00
78619;DHT22;67941;52.506;5.470;2023-12-29T04:00:22;10.20;79.00
78619;DHT22;67941;52.506;5.470;2023-12-29T04:02:51;10.20;78.90
78619;DHT22;67941;52.506;5.470;2023-12-29T04:05:19;10.20;78.80
78619;DHT22;67941;52.506;5.470;2023-12-29T04:07:51;10.20;78.60
78619;DHT22;67941;52.506;5.470;2023-12-29T04:10:20;10.20;78.50
78619;DHT22;67941;52.506;5.470;2023-12-29T04:12:48;10.20;78.30
78619;DHT22;67941;52.506;5.470;2023-12-29T04:15:18;10.20;78.30
78619;DHT22;67941;52.506;5.470;2023-12-29T04:17:47;10.10;78.30
78619;DHT22;67941;52.506;5.470;2023-12-29T04:20:15;10.10;78.20
78619;DHT22;67941;52.506;5.470;2023-12-29T04:22:46;10.10;78.20
78619;DHT22;67941;52.506;5.470;2023-12-29T04:25:17;10.10;78.10
78619;DHT22;67941;52.506;5.470;2023-12-29T04:27:46;10.10;78.10
78619;DHT22;67941;52.506;5.470;2023-12-29T04:30:16;10.10;78.00
78619;DHT22;67941;52.506;5.470;2023-12-29T04:32:45;10.10;77.90
78619;DHT22;67941;52.506;5.470;2023-12-29T04:35:13;10.10;77.80
78619;DHT22;67941;52.506;5.470;2023-12-29T04:37:44;10.10;77.80
78619;DHT22;67941;52.506;5.470;2023-12-29T04:40:13;10.10;77.70
78619;DHT22;67941;52.506;5.470;2023-12-29T04:42:44;10.10;77.70
78619;DHT22;67941;52.506;5.470;2023-12-29T04:45:14;10.10;77.70
78619;DHT22;67941;52.506;5.470;2023-12-29T04:47:42;10.20;77.60
78619;DHT22;67941;52.506;5.470;2023-12-29T04:50:11;10.20;77.50
78619;DHT22;67941;52.506;5.470;2023-12-29T04:52:40;10.20;77.50
78619;DHT22;67941;52.506;5.470;2023-12-29T04:55:09;10.20;77.50
78619;DHT22;67941;52.506;5.470;2023-12-29T04:57:38;10.20;77.50
78619;DHT22;67941;52.506;5.470;2023-12-29T05:00:11;10.20;77.50
78619;DHT22;67941;52.506;5.470;2023-12-29T05:02:40;10.20;77.30
78619;DHT22;67941;52.506;5.470;2023-12-29T05:05:09;10.20;77.30
78619;DHT22;67941;52.506;5.470;2023-12-29T05:07:38;10.20;77.20
78619;DHT22;67941;52.506;5.470;2023-12-29T05:10:08;10.20;77.20
78619;DHT22;67941;52.506;5.470;2023-12-29T05:12:37;10.20;77.20
78619;DHT22;67941;52.506;5.470;2023-12-29T05:15:07;10.20;77.20
78619;DHT22;67941;52.506;5.470;2023-12-29T05:17:38;10.20;77.30
78619;DHT22;67941;52.506;5.470;2023-12-29T05:20:09;10.20;77.30
78619;DHT22;67941;52.506;5.470;2023-12-29T05:22:38;10.30;77.30
78619;DHT22;67941;52.506;5.470;2023-12-29T05:25:08;10.30;77.40
78619;DHT22;67941;52.506;5.470;2023-12-29T05:27:37;10.30;77.40
78619;DHT22;67941;52.506;5.470;2023-12-29T05:30:07;10.30;77.50
78619;DHT22;67941;52.506;5.470;2023-12-29T05:32:38;10.40;77.50
78619;DHT22;67941;52.506;5.470;2023-12-29T05:35:07;10.40;77.50
78619;DHT22;67941;52.506;5.470;2023-12-29T05:37:36;10.40;77.50
78619;DHT22;67941;52.506;5.470;2023-12-29T05:40:07;10.40;77.50
78619;DHT22;67941;52.506;5.470;2023-12-29T05:42:36;10.40;77.50
78619;DHT22;67941;52.506;5.470;2023-12-29T05:45:05;10.50;77.60
78619;DHT22;67941;52.506;5.470;2023-12-29T05:47:34;10.50;77.60
78619;DHT22;67941;52.506;5.470;2023-12-29T05:50:07;10.50;77.60
78619;DHT22;67941;52.506;5.470;2023-12-29T05:52:36;10.50;77.60
78619;DHT22;67941;52.506;5.470;2023-12-29T05:55:05;10.50;77.60
78619;DHT22;67941;52.506;5.470;2023-12-29T05:57:34;10.50;77.60
78619;DHT22;67941;52.506;5.470;2023-12-29T06:00:04;10.50;77.70
78619;DHT22;67941;52.506;5.470;2023-12-29T06:02:40;10.50;77.70
78619;DHT22;67941;52.506;5.470;2023-12-29T06:05:13;10.60;77.60
78619;DHT22;67941;52.506;5.470;2023-12-29T06:07:42;10.60;77.70
78619;DHT22;67941;52.506;5.470;2023-12-29T06:10:11;10.60;77.70
78619;DHT22;67941;52.506;5.470;2023-12-29T06:12:40;10.60;77.70
78619;DHT22;67941;52.506;5.470;2023-12-29T06:15:09;10.60;77.60
78619;DHT22;67941;52.506;5.470;2023-12-29T06:17:38;10.60;77.60
78619;DHT22;67941;52.506;5.470;2023-12-29T06:20:09;10.60;77.60
78619;DHT22;67941;52.506;5.470;2023-12-29T06:22:41;10.60;77.60
78619;DHT22;67941;52.506;5.470;2023-12-29T06:25:11;10.60;77.60
78619;DHT22;67941;52.506;5.470;2023-12-29T06:27:41;10.60;77.60
78619;DHT22;67941;52.506;5.470;2023-12-29T06:30:11;10.70;77.60
78619;DHT22;67941;52.506;5.470;2023-12-29T06:32:40;10.70;77.60
78619;DHT22;67941;52.506;5.470;2023-12-29T06:35:10;10.70;77.60
78619;DHT22;67941;52.506;5.470;2023-12-29T06:37:42;10.60;77.60
78619;DHT22;67941;52.506;5.470;2023-12-29T06:40:11;10.70;77.60
78619;DHT22;67941;52.506;5.470;2023-12-29T06:42:40;10.70;77.70
78619;DHT22;67941;52.506;5.470;2023-12-29T06:45:10;10.70;77.70
78619;DHT22;67941;52.506;5.470;2023-12-29T06:47:38;10.70;77.70
78619;DHT22;67941;52.506;5.470;2023-12-29T06:50:08;10.70;77.70
78619;DHT22;67941;52.506;5.470;2023-12-29T06:52:38;10.70;77.70
78619;DHT22;67941;52.506;5.470;2023-12-29T06:55:10;10.70;77.70
78619;DHT22;67941;52.506;5.470;2023-12-29T06:57:39;10.80;77.70
78619;DHT22;67941;52.506;5.470;2023-12-29T07:00:09;10.70;77.80
78619;DHT22;67941;52.506;5.470;2023-12-29T07:02:38;10.80;77.80
78619;DHT22;67941;52.506;5.470;2023-12-29T07:05:08;10.80;77.80
78619;DHT22;67941;52.506;5.470;2023-12-29T07:07:37;10.80;77.80
78619;DHT22;67941;52.506;5.470;2023-12-29T07:10:07;10.80;77.80
78619;DHT22;67941;52.506;5.470;2023-12-29T07:12:38;10.80;77.80
78619;DHT22;67941;52.506;5.470;2023-12-29T07:15:08;10.80;77.80
78619;DHT22;67941;52.506;5.470;2023-12-29T07:17:39;10.80;77.80
78619;DHT22;67941;52.506;5.470;2023-12-29T07:20:09;10.80;77.80
78619;DHT22;67941;52.506;5.470;2023-12-29T07:22:38;10.70;77.80
78619;DHT22;67941;52.506;5.470;2023-12-29T07:25:08;10.80;77.70
78619;DHT22;67941;52.506;5.470;2023-12-29T07:27:44;10.80;77.70
78619;DHT22;67941;52.506;5.470;2023-12-29T07:30:15;10.80;77.70
78619;DHT22;67941;52.506;5.470;2023-12-29T07:32:44;10.80;77.70
78619;DHT22;67941;52.506;5.470;2023-12-29T07:35:13;10.80;77.70
78619;DHT22;67941;52.506;5.470;2023-12-29T07:37:43;10.80;77.70
78619;DHT22;67941;52.506;5.470;2023-12-29T07:40:13;10.80;77.70
78619;DHT22;67941;52.506;5.470;2023-12-29T07:42:45;10.80;77.80
78619;DHT22;67941;52.506;5.470;2023-12-29T07:45:19;10.80;77.80
78619;DHT22;67941;52.506;5.470;2023-12-29T07:47:48;10.70;77.80
78619;DHT22;67941;52.506;5.470;2023-12-29T07:50:17;10.70;77.80
78619;DHT22;67941;52.506;5.470;2023-12-29T07:52:46;10.70;77.80
78619;DHT22;67941;52.506;5.470;2023-12-29T07:55:15;10.70;77.80
78619;DHT22;67941;52.506;5.470;2023-12-29T07:57:47;10.70;77.90
78619;DHT22;67941;52.506;5.470;2023-12-29T08:00:16;10.70;77.80
78619;DHT22;67941;52.506;5.470;2023-12-29T08:02:45;10.70;77.90
78619;DHT22;67941;52.506;5.470;2023-12-29T08:05:14;10.70;77.90
78619;DHT22;67941;52.506;5.470;2023-12-29T08:07:43;10.70;77.90
78619;DHT22;67941;52.506;5.470;2023-12-29T08:10:12;10.70;77.90
78619;DHT22;67941;52.506;5.470;2023-12-29T08:12:41;10.70;78.00
78619;DHT22;67941;52.506;5.470;2023-12-29T08:15:13;10.70;78.00
78619;DHT22;67941;52.506;5.470;2023-12-29T08:17:42;10.70;78.00
78619;DHT22;67941;52.506;5.470;2023-12-29T08:20:11;10.70;78.00
78619;DHT22;67941;52.506;5.470;2023-12-29T08:22:41;10.70;78.10
78619;DHT22;67941;52.506;5.470;2023-12-29T08:25:10;10.70;78.10
78619;DHT22;67941;52.506;5.470;2023-12-29T08:27:39;10.70;78.10
78619;DHT22;67941;52.506;5.470;2023-12-29T08:30:08;10.70;78.10
78619;DHT22;67941;52.506;5.470;2023-12-29T08:32:40;10.70;78.20
78619;DHT22;67941;52.506;5.470;2023-12-29T08:35:09;10.70;78.20
78619;DHT22;67941;52.506;5.470;2023-12-29T08:37:37;10.70;78.30
78619;DHT22;67941;52.506;5.470;2023-12-29T08:40:07;10.70;78.30
78619;DHT22;67941;52.506;5.470;2023-12-29T08:42:36;10.70;78.30
78619;DHT22;67941;52.506;5.470;2023-12-29T08:45:06;10.80;78.20
78619;DHT22;67941;52.506;5.470;2023-12-29T08:47:35;10.80;78.30
78619;DHT22;67941;52.506;5.470;2023-12-29T08:50:07;10.80;78.30
78619;DHT22;67941;52.506;5.470;2023-12-29T08:52:36;10.80;78.30
78619;DHT22;67941;52.506;5.470;2023-12-29T08:55:06;10.80;78.30
78619;DHT22;67941;52.506;5.470;2023-12-29T08:57:35;10.80;78.30
78619;DHT22;67941;52.506;5.470;2023-12-29T09:00:05;10.80;78.20
78619;DHT22;67941;52.506;5.470;2023-12-29T09:02:35;10.80;78.20
78619;DHT22;67941;52.506;5.470;2023-12-29T09:05:07;10.80;78.20
78619;DHT22;67941;52.506;5.470;2023-12-29T09:07:36;10.70;78.00
78619;DHT22;67941;52.506;5.470;2023-12-29T09:10:06;10.70;78.00
78619;DHT22;67941;52.506;5.470;2023-12-29T09:12:37;10.50;78.10
78619;DHT22;67941;52.506;5.470;2023-12-29T09:15:07;10.50;78.20
78619;DHT22;67941;52.506;5.470;2023-12-29T09:17:36;10.40;78.40
78619;DHT22;67941;52.506;5.470;2023-12-29T09:20:08;10.30;78.50
78619;DHT22;67941;52.506;5.470;2023-12-29T09:22:37;10.30;78.60
78619;DHT22;67941;52.506;5.470;2023-12-29T09:25:07;10.20;78.70
78619;DHT22;67941;52.506;5.470;2023-12-29T09:27:36;10.20;78.70
78619;DHT22;67941;52.506;5.470;2023-12-29T09:30:06;10.10;78.90
78619;DHT22;67941;52.506;5.470;2023-12-29T09:32:35;10.10;79.00
78619;DHT22;67941;52.506;5.470;2023-12-29T09:35:07;10.10;79.10
78619;DHT22;67941;52.506;5.470;2023-12-29T09:37:36;10.20;79.20
78619;DHT22;67941;52.506;5.470;2023-12-29T09:40:06;10.20;79.30
78619;DHT22;67941;52.506;5.470;2023-12-29T09:42:35;10.20;79.30
78619;DHT22;67941;52.506;5.470;2023-12-29T09:45:09;10.30;79.40
78619;DHT22;67941;52.506;5.470;2023-12-29T09:47:41;10.30;79.40
78619;DHT22;67941;52.506;5.470;2023-12-29T09:50:13;10.30;79.30
78619;DHT22;67941;52.506;5.470;2023-12-29T09:52:43;10.40;79.40
78619;DHT22;67941;52.506;5.470;2023-12-29T09:55:12;10.40;79.50
78619;DHT22;67941;52.506;5.470;2023-12-29T09:57:41;10.40;79.60
78619;DHT22;67941;52.506;5.470;2023-12-29T10:00:11;10.40;79.60
78619;DHT22;67941;52.506;5.470;2023-12-29T10:02:41;10.50;79.70
78619;DHT22;67941;52.506;5.470;2023-12-29T10:05:09;10.50;79.60
78619;DHT22;67941;52.506;5.470;2023-12-29T10:07:43;10.60;79.60
78619;DHT22;67941;52.506;5.470;2023-12-29T10:10:15;10.60;79.60
78619;DHT22;67941;52.506;5.470;2023-12-29T10:12:47;10.70;79.60
78619;DHT22;67941;52.506;5.470;2023-12-29T10:15:19;10.70;79.40
78619;DHT22;67941;52.506;5.470;2023-12-29T10:17:52;10.70;79.40
78619;DHT22;67941;52.506;5.470;2023-12-29T10:20:33;10.70;79.40
78619;DHT22;67941;52.506;5.470;2023-12-29T10:23:10;10.70;79.40
78619;DHT22;67941;52.506;5.470;2023-12-29T10:25:42;10.70;79.40
78619;DHT22;67941;52.506;5.470;2023-12-29T10:28:13;10.70;79.60
78619;DHT22;67941;52.506;5.470;2023-12-29T10:30:43;10.80;79.50
78619;DHT22;67941;52.506;5.470;2023-12-29T10:33:19;10.80;79.50
78619;DHT22;67941;52.506;5.470;2023-12-29T10:35:57;10.90;79.40
78619;DHT22;67941;52.506;5.470;2023-12-29T10:38:31;10.90;79.40
78619;DHT22;67941;52.506;5.470;2023-12-29T10:41:13;10.90;79.30
78619;DHT22;67941;52.506;5.470;2023-12-29T10:43:43;11.00;79.20
78619;DHT22;67941;52.506;5.470;2023-12-29T10:46:13;11.00;79.00
78619;DHT22;67941;52.506;5.470;2023-12-29T10:48:42;11.00;78.90
78619;DHT22;67941;52.506;5.470;2023-12-29T10:51:11;11.00;78.80
78619;DHT22;67941;52.506;5.470;2023-12-29T10:53:55;10.90;78.80
78619;DHT22;67941;52.506;5.470;2023-12-29T10:56:24;10.90;78.80
78619;DHT22;67941;52.506;5.470;2023-12-29T10:59:00;10.80;78.80
78619;DHT22;67941;52.506;5.470;2023-12-29T11:01:29;10.80;78.80
78619;DHT22;67941;52.506;5.470;2023-12-29T11:03:59;10.80;78.90
78619;DHT22;67941;52.506;5.470;2023-12-29T11:06:29;10.80;79.00
78619;DHT22;67941;52.506;5.470;2023-12-29T11:09:00;10.90;78.90
78619;DHT22;67941;52.506;5.470;2023-12-29T11:11:31;10.90;78.80
78619;DHT22;67941;52.506;5.470;2023-12-29T11:14:02;10.90;78.80
78619;DHT22;67941;52.506;5.470;2023-12-29T11:16:32;10.90;78.80
78619;DHT22;67941;52.506;5.470;2023-12-29T11:19:01;10.90;78.80
78619;DHT22;67941;52.506;5.470;2023-12-29T11:21:30;11.00;78.70
78619;DHT22;67941;52.506;5.470;2023-12-29T11:24:03;11.00;78.70
78619;DHT22;67941;52.506;5.470;2023-12-29T11:26:32;11.10;78.70
78619;DHT22;67941;52.506;5.470;2023-12-29T11:29:01;11.10;78.70
78619;DHT22;67941;52.506;5.470;2023-12-29T11:31:30;11.20;78.80
78619;DHT22;67941;52.506;5.470;2023-12-29T11:34:05;11.30;78.70
78619;DHT22;67941;52.506;5.470;2023-12-29T11:36:40;11.30;78.60
78619;DHT22;67941;52.506;5.470;2023-12-29T11:39:17;11.40;78.50
78619;DHT22;67941;52.506;5.470;2023-12-29T11:41:49;11.40;78.40
78619;DHT22;67941;52.506;5.470;2023-12-29T11:44:24;11.40;78.20
78619;DHT22;67941;52.506;5.470;2023-12-29T11:46:55;11.30;78.30
78619;DHT22;67941;52.506;5.470;2023-12-29T11:49:24;11.30;78.30
78619;DHT22;67941;52.506;5.470;2023-12-29T11:51:53;11.30;78.30
78619;DHT22;67941;52.506;5.470;2023-12-29T11:54:25;11.30;78.20
78619;DHT22;67941;52.506;5.470;2023-12-29T11:56:54;11.40;78.10
78619;DHT22;67941;52.506;5.470;2023-12-29T11:59:25;11.40;78.10
78619;DHT22;67941;52.506;5.470;2023-12-29T12:01:55;11.40;78.00
78619;DHT22;67941;52.506;5.470;2023-12-29T12:04:39;11.40;77.80
78619;DHT22;67941;52.506;5.470;2023-12-29T12:07:15;11.40;77.80
78619;DHT22;67941;52.506;5.470;2023-12-29T12:10:32;11.40;77.80
78619;DHT22;67941;52.506;5.470;2023-12-29T12:13:04;11.40;77.70
78619;DHT22;67941;52.506;5.470;2023-12-29T12:15:35;11.40;77.60
78619;DHT22;67941;52.506;5.470;2023-12-29T12:18:05;11.40;77.50
78619;DHT22;67941;52.506;5.470;2023-12-29T12:20:35;11.40;77.40
78619;DHT22;67941;52.506;5.470;2023-12-29T12:23:10;11.40;77.40
78619;DHT22;67941;52.506;5.470;2023-12-29T12:25:44;11.40;77.30
78619;DHT22;67941;52.506;5.470;2023-12-29T12:28:14;11.40;77.10
78619;DHT22;67941;52.506;5.470;2023-12-29T12:30:43;11.40;77.00
78619;DHT22;67941;52.506;5.470;2023-12-29T12:33:13;11.40;76.80
78619;DHT22;67941;52.506;5.470;2023-12-29T12:35:42;11.30;76.80
78619;DHT22;67941;52.506;5.470;2023-12-29T12:38:13;11.30;76.70
78619;DHT22;67941;52.506;5.470;2023-12-29T12:40:48;11.20;76.70
78619;DHT22;67941;52.506;5.470;2023-12-29T12:43:17;11.10;76.70
78619;DHT22;67941;52.506;5.470;2023-12-29T12:45:48;11.10;76.70
78619;DHT22;67941;52.506;5.470;2023-12-29T12:48:23;11.10;76.60
78619;DHT22;67941;52.506;5.470;2023-12-29T12:50:52;11.10;76.60
78619;DHT22;67941;52.506;5.470;2023-12-29T12:53:23;11.10;76.60
78619;DHT22;67941;52.506;5.470;2023-12-29T12:55:56;11.10;76.70
78619;DHT22;67941;52.506;5.470;2023-12-29T12:58:25;11.10;76.80
78619;DHT22;67941;52.506;5.470;2023-12-29T13:00:57;11.20;76.70
78619;DHT22;67941;52.506;5.470;2023-12-29T13:03:27;11.30;76.70
78619;DHT22;67941;52.506;5.470;2023-12-29T13:05:56;11.30;76.60
78619;DHT22;67941;52.506;5.470;2023-12-29T13:08:25;11.40;76.50
78619;DHT22;67941;52.506;5.470;2023-12-29T13:10:57;11.40;76.50
78619;DHT22;67941;52.506;5.470;2023-12-29T13:13:38;11.40;76.30
78619;DHT22;67941;52.506;5.470;2023-12-29T13:16:07;11.40;76.20
78619;DHT22;67941;52.506;5.470;2023-12-29T13:18:38;11.40;76.10
78619;DHT22;67941;52.506;5.470;2023-12-29T13:21:08;11.30;76.10
78619;DHT22;67941;52.506;5.470;2023-12-29T13:23:38;11.30;75.90
78619;DHT22;67941;52.506;5.470;2023-12-29T13:26:10;11.30;76.00
78619;DHT22;67941;52.506;5.470;2023-12-29T13:28:40;11.20;75.90
78619;DHT22;67941;52.506;5.470;2023-12-29T13:31:11;11.20;75.80
78619;DHT22;67941;52.506;5.470;2023-12-29T13:33:49;11.10;75.80
78619;DHT22;67941;52.506;5.470;2023-12-29T13:36:25;11.10;75.90
78619;DHT22;67941;52.506;5.470;2023-12-29T13:38:58;11.10;75.90
78619;DHT22;67941;52.506;5.470;2023-12-29T13:41:30;11.10;76.00
78619;DHT22;67941;52.506;5.470;2023-12-29T13:44:01;11.10;75.90
78619;DHT22;67941;52.506;5.470;2023-12-29T13:46:30;11.10;75.90
78619;DHT22;67941;52.506;5.470;2023-12-29T13:48:59;11.10;76.00
78619;DHT22;67941;52.506;5.470;2023-12-29T13:51:29;11.10;76.10
78619;DHT22;67941;52.506;5.470;2023-12-29T13:53:58;11.10;76.10
78619;DHT22;67941;52.506;5.470;2023-12-29T13:56:30;11.10;76.10
78619;DHT22;67941;52.506;5.470;2023-12-29T13:58:59;11.10;76.10
78619;DHT22;67941;52.506;5.470;2023-12-29T14:01:36;11.10;76.10
78619;DHT22;67941;52.506;5.470;2023-12-29T14:04:07;11.00;76.10
78619;DHT22;67941;52.506;5.470;2023-12-29T14:06:43;11.00;76.00
78619;DHT22;67941;52.506;5.470;2023-12-29T14:09:15;11.00;76.10
78619;DHT22;67941;52.506;5.470;2023-12-29T14:11:48;11.00;76.10
78619;DHT22;67941;52.506;5.470;2023-12-29T14:14:22;10.90;76.10
78619;DHT22;67941;52.506;5.470;2023-12-29T14:16:51;10.90;76.00
78619;DHT22;67941;52.506;5.470;2023-12-29T14:19:20;10.90;76.10
78619;DHT22;67941;52.506;5.470;2023-12-29T14:21:50;10.90;76.10
78619;DHT22;67941;52.506;5.470;2023-12-29T14:24:21;10.80;76.20
78619;DHT22;67941;52.506;5.470;2023-12-29T14:26:58;10.80;76.20
78619;DHT22;67941;52.506;5.470;2023-12-29T14:29:28;10.80;76.20
78619;DHT22;67941;52.506;5.470;2023-12-29T14:31:57;10.80;76.20
78619;DHT22;67941;52.506;5.470;2023-12-29T14:34:26;10.80;76.30
78619;DHT22;67941;52.506;5.470;2023-12-29T14:36:55;10.80;76.30
78619;DHT22;67941;52.506;5.470;2023-12-29T14:39:24;10.80;76.30
78619;DHT22;67941;52.506;5.470;2023-12-29T14:41:53;10.70;76.30
78619;DHT22;67941;52.506;5.470;2023-12-29T14:44:24;10.70;76.40
78619;DHT22;67941;52.506;5.470;2023-12-29T14:46:53;10.70;76.30
78619;DHT22;67941;52.506;5.470;2023-12-29T14:49:23;10.60;76.30
78619;DHT22;67941;52.506;5.470;2023-12-29T14:51:52;10.60;76.30
78619;DHT22;67941;52.506;5.470;2023-12-29T14:54:22;10.50;75.90
78619;DHT22;67941;52.506;5.470;2023-12-29T14:56:51;10.40;75.70
78619;DHT22;67941;52.506;5.470;2023-12-29T14:59:20;10.30;75.50
78619;DHT22;67941;52.506;5.470;2023-12-29T15:01:52;10.10;75.20
78619;DHT22;67941;52.506;5.470;2023-12-29T15:04:21;10.00;74.80
78619;DHT22;67941;52.506;5.470;2023-12-29T15:06:50;9.70;74.70
78619;DHT22;67941;52.506;5.470;2023-12-29T15:09:19;9.50;74.70
78619;DHT22;67941;52.506;5.470;2023-12-29T15:11:48;9.20;74.80
78619;DHT22;67941;52.506;5.470;2023-12-29T15:14:18;9.00;75.00
78619;DHT22;67941;52.506;5.470;2023-12-29T15:16:47;8.80;75.00
78619;DHT22;67941;52.506;5.470;2023-12-29T15:19:19;8.70;75.10
78619;DHT22;67941;52.506;5.470;2023-12-29T15:21:48;8.60;75.10
78619;DHT22;67941;52.506;5.470;2023-12-29T15:24:19;8.60;75.10
78619;DHT22;67941;52.506;5.470;2023-12-29T15:26:49;8.50;75.10
78619;DHT22;67941;52.506;5.470;2023-12-29T15:29:17;8.50;75.00
78619;DHT22;67941;52.506;5.470;2023-12-29T15:31:47;8.50;75.10
78619;DHT22;67941;52.506;5.470;2023-12-29T15:34:18;8.50;75.20
78619;DHT22;67941;52.506;5.470;2023-12-29T15:36:47;8.50;75.20
78619;DHT22;67941;52.506;5.470;2023-12-29T15:39:16;8.60;75.30
78619;DHT22;67941;52.506;5.470;2023-12-29T15:41:45;8.60;75.30
78619;DHT22;67941;52.506;5.470;2023-12-29T15:44:14;8.70;75.30
78619;DHT22;67941;52.506;5.470;2023-12-29T15:46:43;8.80;75.30
78619;DHT22;67941;52.506;5.470;2023-12-29T15:49:12;8.80;75.30
78619;DHT22;67941;52.506;5.470;2023-12-29T15:51:43;8.90;75.30